Time;durP1;ratioP1;P1;durP2;ratioP2;P2;SDS_P1;SDS_P2;PMS_P1;PMS_P2;Temp;Humidity;BMP_temperature;BMP_pressure;BME280_temperature;BME280_humidity;BME280_pressure;Samples;Min_cycle;Max_cycle;Signal;HPM_P1;HPM_P2
2022/12/04 00:00:03;;;;;;;27.17;15.73;;;;;;;-0.09;91.17;96436.88;1674737;86;21052;-76
2022/12/04 00:02:32;;;;;;;26.17;14.83;;;;;;;-0.15;90.68;96433.66;1674537;86;21596;-76
2022/12/04 00:05:00;;;;;;;32.00;17.20;;;;;;;-0.18;91.03;96430.92;1674787;86;21002;-76
2022/12/04 00:07:26;;;;;;;29.40;16.63;;;;;;;-0.20;90.93;96432.61;1674774;86;21034;-76
2022/12/04 00:09:53;;;;;;;23.87;13.50;;;;;;;-0.19;90.82;96427.88;1674897;86;21021;-76
2022/12/04 00:12:19;;;;;;;27.93;14.80;;;;;;;-0.15;90.74;96426.26;1674714;86;21038;-76
2022/12/04 00:14:46;;;;;;;25.07;14.07;;;;;;;-0.16;90.52;96424.09;1674821;86;21022;-76
2022/12/04 00:17:13;;;;;;;28.90;16.17;;;;;;;-0.20;90.14;96435.59;1674885;86;21113;-76
2022/12/04 00:19:40;;;;;;;32.63;16.40;;;;;;;-0.28;90.26;96435.31;1682166;85;21041;-76
2022/12/04 00:22:06;;;;;;;28.43;15.17;;;;;;;-0.30;90.30;96435.27;1674885;86;21094;-76
2022/12/04 00:24:33;;;;;;;30.53;16.50;;;;;;;-0.28;90.24;96440.11;1682086;85;21021;-76
2022/12/04 00:27:00;;;;;;;31.53;15.83;;;;;;;-0.36;90.19;96435.45;1674844;86;21093;-76
2022/12/04 00:29:27;;;;;;;28.13;15.13;;;;;;;-0.38;90.36;96430.20;1667432;85;21034;-76
2022/12/04 00:31:53;;;;;;;24.90;13.90;;;;;;;-0.39;90.40;96424.55;1667686;86;21074;-76
2022/12/04 00:34:21;;;;;;;22.50;12.67;;;;;;;-0.44;90.51;96437.77;1667624;86;21056;-76
2022/12/04 00:36:48;;;;;;;25.37;14.10;;;;;;;-0.48;90.51;96436.78;1667767;86;21015;-76
2022/12/04 00:39:15;;;;;;;23.87;13.37;;;;;;;-0.50;90.45;96433.66;1667822;86;21026;-76
2022/12/04 00:41:41;;;;;;;26.93;15.07;;;;;;;-0.48;90.50;96439.38;1667818;86;21540;-76
2022/12/04 00:44:07;;;;;;;21.03;12.23;;;;;;;-0.46;90.42;96436.81;1667681;86;21496;-76
2022/12/04 00:46:34;;;;;;;23.53;12.97;;;;;;;-0.49;90.42;96432.82;1667868;86;21042;-76
2022/12/04 00:49:01;;;;;;;19.40;10.63;;;;;;;-0.54;90.27;96435.23;1667824;86;21476;-76
2022/12/04 00:51:28;;;;;;;24.37;14.03;;;;;;;-0.52;90.22;96443.95;1667749;86;21093;-76
2022/12/04 00:53:55;;;;;;;24.57;13.43;;;;;;;-0.56;90.42;96445.95;1668024;86;21061;-76
2022/12/04 00:56:26;;;;;;;24.53;14.27;;;;;;;-0.57;90.70;96445.49;1667825;86;21002;-76
2022/12/04 00:58:57;;;;;;;27.20;14.83;;;;;;;-0.56;90.71;96445.95;1667714;86;21046;-76
2022/12/04 01:01:27;;;;;;;25.83;14.67;;;;;;;-0.59;90.41;96447.56;1667695;86;21042;-76
2022/12/04 01:03:54;;;;;;;27.10;14.37;;;;;;;-0.66;90.89;96443.84;1667488;86;21006;-76
2022/12/04 01:06:31;;;;;;;23.57;13.80;;;;;;;-0.61;90.88;96442.72;1639224;86;21102;-76
2022/12/04 01:09:00;;;;;;;24.47;13.73;;;;;;;-0.67;90.55;96444.67;1668189;86;21505;-76
2022/12/04 01:11:28;;;;;;;23.00;12.87;;;;;;;-0.68;90.25;96442.89;1667836;86;21113;-76
2022/12/04 01:13:56;;;;;;;23.43;12.67;;;;;;;-0.64;90.29;96437.43;1667782;86;21542;-76
2022/12/04 01:16:32;;;;;;;15.73;10.70;;;;;;;-0.66;89.88;96434.37;1667576;86;21073;-76
2022/12/04 01:18:59;;;;;;;19.53;11.53;;;;;;;-0.68;89.74;96431.23;1667097;86;21540;-76
2022/12/04 01:21:27;;;;;;;20.77;12.47;;;;;;;-0.73;89.90;96435.35;1667793;86;21063;-76
2022/12/04 01:23:54;;;;;;;22.67;13.70;;;;;;;-0.72;90.05;96438.44;1667699;86;21575;-76
2022/12/04 01:26:20;;;;;;;20.90;12.17;;;;;;;-0.65;90.34;96433.96;1667765;86;21041;-76
2022/12/04 01:28:47;;;;;;;24.03;13.43;;;;;;;-0.62;90.27;96435.37;1667448;85;21068;-76
2022/12/04 01:31:17;;;;;;;21.03;11.87;;;;;;;-0.72;90.26;96438.02;1667625;86;21022;-76
2022/12/04 01:33:45;;;;;;;19.83;12.30;;;;;;;-0.70;89.99;96438.09;1667742;86;21035;-76
2022/12/04 01:36:17;;;;;;;20.10;12.13;;;;;;;-0.70;90.12;96438.09;1667686;86;21030;-76
2022/12/04 01:38:44;;;;;;;20.43;11.33;;;;;;;-0.73;90.01;96425.89;1667727;86;21038;-76
2022/12/04 01:41:13;;;;;;;15.87;10.13;;;;;;;-0.77;90.13;96428.31;1667828;86;21081;-76
2022/12/04 01:43:40;;;;;;;19.10;11.90;;;;;;;-0.76;89.99;96428.34;1667754;86;21371;-76
2022/12/04 01:46:08;;;;;;;20.67;12.60;;;;;;;-0.78;90.33;96421.34;1667722;86;21014;-76
2022/12/04 01:48:47;;;;;;;20.10;13.03;;;;;;;-0.83;90.11;96414.71;1667803;86;21002;-76
2022/12/04 01:51:36;;;;;;;20.30;12.23;;;;;;;-0.83;90.14;96410.83;1667863;86;21038;-76
2022/12/04 01:54:27;;;;;;;20.17;11.93;;;;;;;-0.77;90.40;96419.23;1638942;86;21038;-76
2022/12/04 01:57:02;;;;;;;19.57;12.77;;;;;;;-0.85;90.34;96420.66;1667207;86;21030;-76
2022/12/04 01:59:34;;;;;;;22.27;12.83;;;;;;;-0.92;89.96;96415.22;1667808;86;21037;-76
2022/12/04 02:02:09;;;;;;;18.73;10.97;;;;;;;-0.88;89.93;96415.83;1667706;86;21560;-76
2022/12/04 02:04:36;;;;;;;20.50;11.60;;;;;;;-0.84;89.93;96427.59;1667120;86;21121;-76
2022/12/04 02:07:03;;;;;;;18.83;10.83;;;;;;;-0.88;90.33;96420.13;1667683;86;21019;-76
2022/12/04 02:09:31;;;;;;;22.13;12.47;;;;;;;-0.91;90.06;96416.09;1667640;86;21616;-76
2022/12/04 02:12:19;;;;;;;22.50;11.80;;;;;;;-0.94;90.43;96407.80;1667706;86;21090;-76
2022/12/04 02:14:57;;;;;;;19.03;12.10;;;;;;;-0.90;90.29;96405.81;1667704;86;21036;-76
2022/12/04 02:17:34;;;;;;;17.03;11.13;;;;;;;-0.86;90.51;96413.27;1667827;86;21070;-76
2022/12/04 02:20:30;;;;;;;22.27;12.23;;;;;;;-0.90;89.94;96403.64;1667554;86;21077;-76
2022/12/04 02:23:09;;;;;;;16.83;10.00;;;;;;;-0.96;90.09;96405.97;1668085;86;21049;-76
2022/12/04 02:26:07;;;;;;;15.57;9.67;;;;;;;-1.01;90.23;96399.31;1665149;85;21106;-76
2022/12/04 02:28:55;;;;;;;18.73;11.40;;;;;;;-1.06;90.40;96403.44;1668038;85;21046;-76
2022/12/04 02:31:35;;;;;;;15.63;9.13;;;;;;;-1.07;90.30;96409.45;1674788;86;21528;-76
2022/12/04 02:34:28;;;;;;;16.43;9.43;;;;;;;-1.09;90.27;96409.80;1674761;86;21053;-76
2022/12/04 02:37:27;;;;;;;21.57;11.43;;;;;;;-1.10;90.59;96410.63;1674809;86;21046;-76
2022/12/04 02:40:11;;;;;;;19.67;11.27;;;;;;;-1.10;90.90;96411.92;1637890;87;21603;-76
2022/12/04 02:42:57;;;;;;;19.27;10.73;;;;;;;-1.05;91.25;96404.34;1676178;85;21054;-76
2022/12/04 02:45:32;;;;;;;17.50;10.90;;;;;;;-1.12;91.55;96410.56;1680337;85;21042;-76
2022/12/04 02:48:03;;;;;;;28.33;14.93;;;;;;;-1.00;91.31;96410.58;1680313;85;21507;-76
2022/12/04 02:50:33;;;;;;;29.43;16.13;;;;;;;-1.01;91.24;96410.97;1680381;85;21061;-76
2022/12/04 02:53:10;;;;;;;22.17;12.80;;;;;;;-0.96;91.17;96409.86;1680240;85;21033;-76
2022/12/04 02:55:41;;;;;;;20.97;10.67;;;;;;;-1.00;91.45;96405.41;1680519;85;21053;-76
2022/12/04 02:58:21;;;;;;;15.77;8.27;;;;;;;-1.05;91.55;96414.28;1679909;85;21037;-76
2022/12/04 03:00:51;;;;;;;20.30;10.57;;;;;;;-1.07;91.70;96412.04;1679799;85;21048;-76
2022/12/04 03:03:27;;;;;;;19.10;10.87;;;;;;;-0.99;91.64;96411.05;1680208;85;21102;-76
2022/12/04 03:05:59;;;;;;;12.60;6.90;;;;;;;-1.04;91.79;96403.50;1680340;85;21089;-76
2022/12/04 03:08:44;;;;;;;17.50;10.00;;;;;;;-1.04;91.63;96407.39;1680327;85;21034;-76
2022/12/04 03:11:11;;;;;;;20.30;11.57;;;;;;;-1.04;91.29;96406.09;1680336;84;21102;-76
2022/12/04 03:13:43;;;;;;;12.90;7.57;;;;;;;-1.13;91.93;96399.74;1680303;85;21066;-76
2022/12/04 03:16:21;;;;;;;15.20;9.33;;;;;;;-1.13;91.73;96406.22;1677394;85;21041;-76
2022/12/04 03:18:54;;;;;;;21.80;11.60;;;;;;;-1.16;91.82;96409.08;1680425;85;20998;-76
2022/12/04 03:21:25;;;;;;;28.07;15.10;;;;;;;-1.14;91.91;96397.95;1680353;85;21030;-76
2022/12/04 03:23:57;;;;;;;13.53;8.37;;;;;;;-1.11;92.40;96390.33;1680318;85;21025;-76
2022/12/04 03:26:37;;;;;;;22.60;12.20;;;;;;;-1.06;92.14;96396.95;1680402;85;21081;-76
2022/12/04 03:29:33;;;;;;;25.60;13.87;;;;;;;-1.06;92.52;96392.20;1683603;84;21093;-76
2022/12/04 03:32:33;;;;;;;17.20;9.57;;;;;;;-1.07;93.51;96391.32;1704057;84;21098;-76
2022/12/04 03:35:22;;;;;;;31.90;14.83;;;;;;;-1.00;93.47;96389.86;1700112;83;21037;-76
2022/12/04 03:38:18;;;;;;;21.87;12.90;;;;;;;-1.00;93.69;96397.22;1704217;84;21037;-76
2022/12/04 03:41:20;;;;;;;18.37;11.43;;;;;;;-0.92;93.44;96392.33;1704302;84;21038;-75
2022/12/04 03:44:01;;;;;;;22.90;11.83;;;;;;;-0.84;93.03;96403.86;1641990;87;21566;-76
2022/12/04 03:46:33;;;;;;;21.70;12.57;;;;;;;-0.88;93.09;96406.76;1697882;84;21006;-76
2022/12/04 03:49:21;;;;;;;20.17;11.70;;;;;;;-0.88;93.15;96416.25;1703873;84;21552;-76
2022/12/04 03:51:58;;;;;;;24.97;13.20;;;;;;;-0.84;93.14;96409.46;1704315;84;21038;-76
2022/12/04 03:54:32;;;;;;;20.87;11.80;;;;;;;-0.87;93.18;96412.81;1704220;84;21078;-75
2022/12/04 03:57:07;;;;;;;25.17;13.90;;;;;;;-0.85;92.74;96403.40;1704068;84;21080;-76
2022/12/04 03:59:48;;;;;;;22.23;11.43;;;;;;;-0.85;93.15;96402.11;1704342;84;21504;-76
2022/12/04 04:02:19;;;;;;;22.60;12.47;;;;;;;-1.04;93.61;96404.38;1704188;84;21041;-76
2022/12/04 04:04:50;;;;;;;16.67;9.87;;;;;;;-1.00;93.47;96400.22;1704274;84;21102;-76
2022/12/04 04:07:31;;;;;;;20.77;11.70;;;;;;;-1.08;93.82;96398.63;1704253;84;21512;-76
2022/12/04 04:10:04;;;;;;;15.30;8.17;;;;;;;-1.03;93.62;96388.04;1701910;84;21054;-75
2022/12/04 04:12:35;;;;;;;20.87;12.33;;;;;;;-1.06;93.63;96398.25;1704493;84;21025;-76
2022/12/04 04:26:36;;;;;;;21.53;11.43;;;;;;;-0.95;94.05;96393.09;1704345;84;21037;-76
2022/12/04 04:29:03;;;;;;;22.70;11.27;;;;;;;-1.00;93.72;96394.63;1704005;84;21033;-76
2022/12/04 04:31:59;;;;;;;14.53;8.53;;;;;;;-1.02;93.80;96393.67;1674600;84;21021;-76
2022/12/04 04:34:49;;;;;;;19.83;10.80;;;;;;;-1.08;93.72;96398.63;1674825;84;21499;-76
2022/12/04 04:37:39;;;;;;;23.57;12.03;;;;;;;-1.13;93.83;96399.74;1670834;86;21069;-75
2022/12/04 04:40:26;;;;;;;17.37;10.10;;;;;;;-1.17;93.64;96391.79;1659429;84;21488;-76
2022/12/04 04:43:10;;;;;;;18.23;10.03;;;;;;;-1.11;93.55;96386.83;1674926;84;21033;-76
2022/12/04 04:45:47;;;;;;;19.57;9.60;;;;;;;-1.13;93.45;96387.21;1674889;84;21005;-76
2022/12/04 04:48:20;;;;;;;21.27;12.40;;;;;;;-1.13;93.39;96387.21;1674919;84;21064;-76
2022/12/04 04:50:47;;;;;;;27.20;13.10;;;;;;;-1.11;93.34;96389.42;1674202;86;21020;-76
2022/12/04 04:53:19;;;;;;;16.77;8.63;;;;;;;-1.14;93.06;96389.31;1674809;84;21072;-76
2022/12/04 04:55:47;;;;;;;13.47;8.27;;;;;;;-1.08;93.06;96385.69;1644611;86;21029;-76
2022/12/04 04:58:17;;;;;;;22.00;11.87;;;;;;;-1.10;92.85;96391.20;1674714;84;21558;-76
2022/12/04 05:01:01;;;;;;;44.57;22.27;;;;;;;-1.09;92.94;96389.08;1674857;84;21084;-76
2022/12/04 05:03:29;;;;;;;32.73;20.63;;;;;;;-1.06;93.00;96385.72;1674193;84;21013;-76
2022/12/04 05:05:56;;;;;;;35.80;19.90;;;;;;;-1.04;92.97;96375.02;1674736;86;21080;-76
2022/12/04 05:08:23;;;;;;;15.60;9.60;;;;;;;-1.06;92.90;96368.89;1674803;84;21049;-76
2022/12/04 05:10:50;;;;;;;21.27;11.43;;;;;;;-1.02;92.63;96369.48;1674940;84;21069;-76
2022/12/04 05:13:17;;;;;;;21.30;11.07;;;;;;;-1.10;92.50;96376.55;1674717;84;21065;-76
2022/12/04 05:15:44;;;;;;;27.03;13.90;;;;;;;-1.16;92.73;96384.48;1674750;86;21052;-76
2022/12/04 05:18:10;;;;;;;30.63;15.67;;;;;;;-1.16;92.80;96389.66;1674884;84;21781;-76
2022/12/04 05:20:40;;;;;;;17.87;10.60;;;;;;;-1.10;92.79;96387.33;1674791;84;21029;-76
2022/12/04 05:23:07;;;;;;;29.80;17.87;;;;;;;-1.13;92.14;96386.80;1674784;84;21021;-76
2022/12/04 05:25:34;;;;;;;20.27;10.30;;;;;;;-1.24;91.93;96384.18;1674836;84;21519;-76
2022/12/04 05:28:00;;;;;;;22.17;11.93;;;;;;;-1.32;92.14;96390.77;1674690;84;21595;-76
2022/12/04 05:30:27;;;;;;;21.67;11.87;;;;;;;-1.35;92.14;96390.66;1675541;84;21037;-76
2022/12/04 05:32:54;;;;;;;18.67;10.50;;;;;;;-1.38;92.24;96386.23;1676387;86;21037;-76
2022/12/04 05:35:21;;;;;;;20.83;10.60;;;;;;;-1.35;92.62;96394.12;1676711;86;21476;-76
2022/12/04 05:37:47;;;;;;;14.97;8.63;;;;;;;-1.38;92.62;96395.30;1676771;85;21029;-76
2022/12/04 05:40:14;;;;;;;15.13;9.23;;;;;;;-1.45;92.38;96398.45;1676758;85;21005;-76
2022/12/04 05:42:40;;;;;;;16.07;9.53;;;;;;;-1.41;92.32;96394.27;1676679;86;20986;-76
2022/12/04 05:45:08;;;;;;;15.60;9.20;;;;;;;-1.39;92.33;96393.93;1676806;85;21511;-76
2022/12/04 05:47:41;;;;;;;13.03;7.90;;;;;;;-1.29;92.62;96394.77;1676513;85;21075;-76
2022/12/04 05:50:12;;;;;;;14.37;9.10;;;;;;;-1.24;92.81;96391.07;1676708;85;21020;-76
2022/12/04 05:52:38;;;;;;;15.90;9.07;;;;;;;-1.21;92.41;96398.95;1676692;85;21507;-76
2022/12/04 05:55:06;;;;;;;20.27;12.17;;;;;;;-1.25;92.07;96400.55;1676649;86;21005;-76
2022/12/04 05:57:32;;;;;;;20.80;11.80;;;;;;;-1.28;92.68;96407.33;1676652;86;21101;-76
2022/12/04 05:59:59;;;;;;;18.33;10.70;;;;;;;-1.28;92.93;96403.02;1676783;86;21009;-76
2022/12/04 06:02:25;;;;;;;19.27;10.90;;;;;;;-1.23;92.70;96400.62;1676584;86;21053;-76
2022/12/04 06:04:52;;;;;;;19.83;11.40;;;;;;;-1.25;92.83;96396.67;1676783;86;21550;-76
2022/12/04 06:07:19;;;;;;;20.10;11.27;;;;;;;-1.26;92.80;96399.19;1676767;86;20989;-76
2022/12/04 06:09:45;;;;;;;18.53;11.00;;;;;;;-1.23;93.20;96400.20;1676685;86;21065;-76
2022/12/04 06:12:12;;;;;;;17.77;10.47;;;;;;;-1.23;92.79;96407.09;1676733;86;21001;-76
2022/12/04 06:14:38;;;;;;;15.90;9.33;;;;;;;-1.18;92.99;96406.45;1676768;86;20981;-76
2022/12/04 06:17:05;;;;;;;19.63;11.07;;;;;;;-1.16;92.83;96411.67;1676604;85;21081;-76
2022/12/04 06:19:31;;;;;;;17.60;10.03;;;;;;;-1.20;92.64;96411.97;1676660;86;21480;-76
2022/12/04 06:21:58;;;;;;;21.00;11.03;;;;;;;-1.26;92.36;96414.72;1676759;86;21024;-76
2022/12/04 06:24:25;;;;;;;23.63;12.33;;;;;;;-1.29;92.52;96415.48;1676382;86;21480;-76
2022/12/04 06:26:58;;;;;;;18.67;11.17;;;;;;;-1.30;92.73;96416.31;1676826;86;21088;-76
2022/12/04 06:29:25;;;;;;;16.80;9.68;;;;;;;-1.26;93.05;96413.04;1676756;86;21055;-76
2022/12/04 06:31:52;;;;;;;12.07;7.33;;;;;;;-1.19;93.05;96411.55;1674718;84;21531;-76
2022/12/04 06:34:18;;;;;;;16.13;9.70;;;;;;;-1.17;92.94;96405.61;1674980;86;21067;-76
2022/12/04 06:36:45;;;;;;;17.13;10.53;;;;;;;-1.13;92.85;96407.93;1674708;84;21013;-76
2022/12/04 06:39:11;;;;;;;20.40;11.40;;;;;;;-1.15;93.06;96408.27;1674837;84;21013;-76
2022/12/04 06:41:38;;;;;;;14.67;9.13;;;;;;;-1.09;92.89;96401.61;1644212;86;21017;-76
2022/12/04 06:44:05;;;;;;;14.03;8.60;;;;;;;-1.09;92.75;96408.50;1674763;86;21005;-76
2022/12/04 06:46:33;;;;;;;15.37;9.53;;;;;;;-1.07;92.62;96407.28;1674695;86;21033;-76
2022/12/04 06:49:01;;;;;;;17.93;9.53;;;;;;;-1.17;92.89;96417.69;1674755;86;21034;-76
2022/12/04 06:51:31;;;;;;;10.83;6.83;;;;;;;-1.10;92.99;96414.09;1674714;84;21085;-76
2022/12/04 06:54:00;;;;;;;12.47;7.37;;;;;;;-1.09;92.92;96408.50;1674769;86;21479;-76
2022/12/04 06:56:30;;;;;;;14.43;8.37;;;;;;;-1.09;92.63;96407.20;1674790;84;21029;-76
2022/12/04 06:59:01;;;;;;;32.57;17.03;;;;;;;-1.06;92.55;96412.50;1674673;84;21071;-76
2022/12/04 07:01:31;;;;;;;87.47;48.33;;;;;;;-1.04;92.70;96412.57;1674736;84;21001;-76
2022/12/04 07:04:00;;;;;;;35.63;23.33;;;;;;;-1.07;92.79;96416.34;1674843;84;21037;-76
2022/12/04 07:06:30;;;;;;;341.73;147.43;;;;;;;-1.09;93.13;96416.27;1674743;84;21029;-76
2022/12/04 07:09:05;;;;;;;302.50;150.80;;;;;;;-1.03;92.79;96411.73;1674744;84;20989;-76
2022/12/04 07:11:32;;;;;;;116.90;58.93;;;;;;;-1.01;92.54;96415.27;1674936;84;21555;-76
2022/12/04 07:13:59;;;;;;;157.00;95.60;;;;;;;-0.98;92.28;96411.53;1674679;84;21025;-76
2022/12/04 07:16:28;;;;;;;81.63;46.47;;;;;;;-1.00;92.23;96415.34;1674620;86;20997;-76
2022/12/04 07:18:56;;;;;;;73.93;50.40;;;;;;;-0.98;92.41;96409.82;1674621;86;21005;-76
2022/12/04 07:21:27;;;;;;;51.33;39.17;;;;;;;-0.97;92.19;96398.63;1674794;86;21530;-76
2022/12/04 07:23:59;;;;;;;23.40;13.37;;;;;;;-1.05;91.88;96401.75;1674723;84;21076;-76
2022/12/04 07:26:28;;;;;;;22.05;14.65;;;;;;;-1.17;92.98;96408.63;1674827;86;21029;-76
2022/12/04 07:28:57;;;;;;;22.10;13.63;;;;;;;-1.10;93.20;96412.80;1674777;84;21061;-76
2022/12/04 07:31:26;;;;;;;26.37;16.07;;;;;;;-1.07;92.82;96405.98;1674541;83;21073;-76
2022/12/04 07:33:55;;;;;;;30.40;18.37;;;;;;;-1.10;93.06;96414.52;1674850;84;21036;-76
2022/12/04 07:36:24;;;;;;;22.97;15.53;;;;;;;-1.08;93.16;96406.41;1674887;84;21057;-76
2022/12/04 07:38:51;;;;;;;30.53;16.97;;;;;;;-1.00;93.27;96404.98;1644300;86;21500;-76
2022/12/04 07:41:18;;;;;;;29.17;16.00;;;;;;;-0.97;93.02;96408.98;1674804;86;21041;-76
2022/12/04 07:43:45;;;;;;;29.53;17.07;;;;;;;-0.96;92.65;96408.17;1674831;84;21021;-76
2022/12/04 07:46:17;;;;;;;36.97;19.17;;;;;;;-1.01;92.64;96407.09;1674966;84;21075;-76
2022/12/04 07:48:43;;;;;;;29.70;17.47;;;;;;;-0.98;92.82;96405.05;1674704;84;21040;-76
2022/12/04 07:51:14;;;;;;;40.97;19.97;;;;;;;-0.96;92.88;96400.41;1674882;86;21072;-76
2022/12/04 07:53:42;;;;;;;12.33;7.93;;;;;;;-0.96;92.82;96399.50;1674775;86;21013;-76
2022/12/04 07:56:11;;;;;;;20.77;11.60;;;;;;;-0.95;92.44;96398.70;1674680;86;21064;-76
2022/12/04 07:58:39;;;;;;;18.70;11.40;;;;;;;-0.95;92.42;96402.58;1674931;84;21128;-76
2022/12/04 08:01:16;;;;;;;18.00;10.93;;;;;;;-0.88;92.76;96402.00;1674792;84;21057;-76
2022/12/04 08:03:45;;;;;;;18.73;9.80;;;;;;;-0.81;92.59;96403.97;1674613;84;21015;-76
2022/12/04 08:06:12;;;;;;;27.13;15.13;;;;;;;-0.80;92.69;96404.88;1674980;84;21068;-76
2022/12/04 08:08:38;;;;;;;15.50;10.20;;;;;;;-0.78;92.76;96401.91;1674870;86;21543;-76
2022/12/04 08:11:11;;;;;;;23.00;12.77;;;;;;;-0.79;92.55;96398.86;1674903;84;21021;-76
2022/12/04 08:13:38;;;;;;;18.10;10.48;;;;;;;-0.80;92.67;96394.52;1674967;84;21001;-76
2022/12/04 08:16:07;;;;;;;15.83;8.80;;;;;;;-0.83;92.74;96399.17;1674813;84;21013;-76
2022/12/04 08:18:34;;;;;;;17.00;11.23;;;;;;;-0.88;93.03;96405.47;1674720;84;21037;-76
2022/12/04 08:21:08;;;;;;;25.43;15.27;;;;;;;-0.83;92.83;96397.88;1674817;86;21049;-76
2022/12/04 08:23:36;;;;;;;36.07;19.37;;;;;;;-0.70;93.41;96394.91;1674864;84;21117;-76
2022/12/04 08:26:03;;;;;;;21.03;10.57;;;;;;;-0.63;92.98;96395.13;1674800;86;21065;-76
2022/12/04 08:28:31;;;;;;;21.90;12.57;;;;;;;-0.58;92.92;96393.20;1674802;84;20997;-76
2022/12/04 08:31:17;;;;;;;21.10;12.07;;;;;;;-0.50;92.98;96395.65;1675416;84;21009;-76
2022/12/04 08:33:46;;;;;;;28.20;16.20;;;;;;;-0.46;92.49;96394.04;1676673;86;21093;-76
2022/12/04 08:36:16;;;;;;;26.10;13.50;;;;;;;-0.39;92.61;96389.55;1676666;86;21033;-76
2022/12/04 08:38:43;;;;;;;37.33;27.73;;;;;;;-0.28;92.95;96383.44;1676930;86;21041;-76
2022/12/04 08:41:14;;;;;;;24.40;13.03;;;;;;;-0.30;92.31;96384.70;1676830;86;21002;-76
2022/12/04 08:43:41;;;;;;;35.90;21.40;;;;;;;-0.46;92.51;96399.22;1676855;85;21037;-76
2022/12/04 08:46:12;;;;;;;21.27;13.97;;;;;;;-0.39;92.61;96386.95;1676825;86;21005;-77
2022/12/04 08:48:38;;;;;;;36.27;18.97;;;;;;;-0.39;92.56;96379.17;1676757;86;21511;-76
2022/12/04 08:51:07;;;;;;;27.27;13.43;;;;;;;-0.32;92.67;96373.39;1676658;86;21105;-76
2022/12/04 08:53:35;;;;;;;46.10;20.30;;;;;;;-0.27;92.53;96378.75;1676730;86;20986;-76
2022/12/04 08:56:03;;;;;;;19.27;11.33;;;;;;;-0.31;92.19;96379.45;1676815;86;21072;-76
2022/12/04 08:58:30;;;;;;;28.30;15.03;;;;;;;-0.28;91.95;96387.33;1676651;86;21025;-76
2022/12/04 09:01:09;;;;;;;24.27;12.77;;;;;;;-0.29;91.97;96382.56;1676811;85;21036;-76
2022/12/04 09:03:36;;;;;;;21.40;13.80;;;;;;;-0.27;92.37;96380.05;1676638;86;21032;-76
2022/12/04 09:06:05;;;;;;;28.17;15.17;;;;;;;-0.28;92.33;96375.66;1676748;86;20998;-76
2022/12/04 09:08:33;;;;;;;26.23;15.93;;;;;;;-0.19;92.67;96369.52;1676823;86;21033;-76
2022/12/04 09:11:09;;;;;;;16.93;9.90;;;;;;;-0.14;92.44;96354.12;1676549;86;21128;-76
2022/12/04 09:13:37;;;;;;;19.50;11.00;;;;;;;-0.12;91.99;96362.42;1676321;86;21044;-76
2022/12/04 09:16:08;;;;;;;19.40;11.47;;;;;;;-0.11;91.97;96373.67;1676694;85;21026;-76
2022/12/04 09:18:36;;;;;;;32.10;17.67;;;;;;;-0.14;92.08;96373.58;1676580;86;21048;-76
2022/12/04 09:21:07;;;;;;;43.23;19.50;;;;;;;-0.11;92.14;96378.86;1676974;86;21021;-76
2022/12/04 09:23:35;;;;;;;78.23;34.80;;;;;;;-0.05;92.46;96366.09;1676818;86;21534;-76
2022/12/04 09:26:03;;;;;;;65.67;37.27;;;;;;;-0.05;92.13;96368.30;1676710;86;21009;-76
2022/12/04 09:28:30;;;;;;;25.03;13.37;;;;;;;0.00;92.05;96368.46;1676777;86;21108;-76
2022/12/04 09:31:03;;;;;;;37.73;22.17;;;;;;;-0.02;91.65;96369.69;1676661;84;21113;-76
2022/12/04 09:33:31;;;;;;;45.28;21.00;;;;;;;0.01;91.57;96372.81;1649946;86;21077;-76
2022/12/04 09:36:00;;;;;;;38.63;18.40;;;;;;;-0.04;91.51;96367.88;1676698;86;21013;-76
2022/12/04 09:38:28;;;;;;;39.30;19.97;;;;;;;-0.04;91.63;96367.45;1676731;86;21001;-76
2022/12/04 09:41:26;;;;;;;27.70;15.63;;;;;;;0.02;91.77;96368.07;1676630;86;21033;-76
2022/12/04 09:44:23;;;;;;;31.23;17.13;;;;;;;-0.07;91.55;96366.06;1676732;85;21074;-76
2022/12/04 09:47:02;;;;;;;27.73;12.30;;;;;;;-0.08;91.98;96364.70;1676649;86;21087;-76
2022/12/04 09:49:37;;;;;;;40.43;21.50;;;;;;;-0.05;92.17;96363.11;1676675;86;21037;-76
2022/12/04 09:52:26;;;;;;;11.23;6.40;;;;;;;-0.10;91.77;96357.27;1676691;86;21024;-76
2022/12/04 09:54:55;;;;;;;12.67;6.33;;;;;;;-0.07;91.85;96358.70;1676702;86;21506;-76
2022/12/04 09:57:30;;;;;;;10.33;6.07;;;;;;;0.03;92.06;96356.88;1676704;86;21020;-76
2022/12/04 09:59:57;;;;;;;9.73;6.00;;;;;;;0.11;92.01;96360.61;1676607;86;21619;-76
2022/12/04 10:02:32;;;;;;;9.97;5.13;;;;;;;0.20;91.91;96355.75;1676737;85;21005;-76
2022/12/04 10:04:59;;;;;;;9.13;5.93;;;;;;;0.24;91.66;96346.33;1676850;85;21499;-75
2022/12/04 10:07:37;;;;;;;9.67;5.60;;;;;;;0.36;92.21;96348.03;1676803;86;21017;-76
2022/12/04 10:10:09;;;;;;;9.20;5.50;;;;;;;0.47;92.02;96340.59;1676731;85;21045;-76
2022/12/04 10:13:09;;;;;;;11.37;7.67;;;;;;;0.54;91.59;96337.78;1676301;86;21074;-76
2022/12/04 10:15:59;;;;;;;11.40;6.83;;;;;;;0.55;90.82;96331.75;1676797;86;21025;-75
2022/12/04 10:19:02;;;;;;;10.30;6.33;;;;;;;0.57;90.71;96330.08;1676633;86;21474;-76
2022/12/04 10:21:43;;;;;;;8.97;6.23;;;;;;;0.65;91.23;96327.30;1676829;86;21033;-76
2022/12/04 10:24:19;;;;;;;10.63;6.43;;;;;;;0.58;90.34;96326.64;1676470;86;21558;-76
2022/12/04 10:26:48;;;;;;;11.50;7.83;;;;;;;0.54;90.13;96315.29;1676761;86;21004;-76
2022/12/04 10:29:26;;;;;;;11.37;7.37;;;;;;;0.35;89.48;96308.65;1676572;86;21522;-76
2022/12/04 10:31:58;;;;;;;9.63;5.90;;;;;;;0.27;89.84;96318.30;1676171;84;21057;-76
2022/12/04 10:34:28;;;;;;;11.73;6.87;;;;;;;0.29;90.33;96316.22;1675197;86;21142;-76
2022/12/04 10:36:59;;;;;;;9.40;6.57;;;;;;;0.30;90.47;96313.20;1676604;85;21120;-76
2022/12/04 10:39:35;;;;;;;27.97;14.57;;;;;;;0.33;90.77;96308.13;1675018;86;21057;-76
2022/12/04 10:42:19;;;;;;;50.37;21.47;;;;;;;0.38;90.75;96307.44;1676695;86;21128;-76
2022/12/04 10:44:46;;;;;;;18.52;11.25;;;;;;;0.48;90.66;96307.71;1676921;86;20997;-76
2022/12/04 10:47:13;;;;;;;15.17;10.00;;;;;;;0.48;90.33;96309.92;1676830;86;21036;-76
2022/12/04 10:49:40;;;;;;;11.87;7.77;;;;;;;0.53;90.41;96306.14;1676513;86;21005;-76
2022/12/04 10:52:12;;;;;;;20.83;12.03;;;;;;;0.47;89.97;96307.27;1676647;86;21064;-76
2022/12/04 10:54:58;;;;;;;31.30;14.83;;;;;;;0.51;90.11;96296.15;1676803;86;21009;-75
2022/12/04 10:57:44;;;;;;;27.43;14.03;;;;;;;0.45;89.82;96291.63;1676569;86;21081;-75
2022/12/04 11:00:33;;;;;;;48.47;22.87;;;;;;;0.35;89.92;96290.48;1676874;86;20986;-75
2022/12/04 11:03:04;;;;;;;19.73;12.37;;;;;;;0.34;90.27;96288.70;1676585;86;21028;-75
2022/12/04 11:05:36;;;;;;;33.23;17.87;;;;;;;0.31;89.77;96287.73;1676889;86;21487;-75
2022/12/04 11:08:06;;;;;;;;;;;;;;;0.23;90.31;96282.69;1679227;85;21097;-75
2022/12/04 11:10:42;;;;;;;29.73;14.20;;;;;;;0.26;90.91;96282.39;1676921;85;20134;-75
2022/12/04 11:13:16;;;;;;;24.87;11.63;;;;;;;0.29;91.06;96275.11;1676821;86;21032;-75
2022/12/04 11:15:50;;;;;;;24.53;12.10;;;;;;;0.34;90.93;96283.92;1676922;86;21508;-75
2022/12/04 11:18:28;;;;;;;31.23;16.70;;;;;;;0.40;91.00;96282.42;1676756;86;21028;-75
2022/12/04 11:21:05;;;;;;;26.30;14.50;;;;;;;0.45;90.97;96275.17;1676897;86;21005;-75
2022/12/04 11:23:45;;;;;;;17.30;10.93;;;;;;;0.51;90.77;96267.16;1676875;86;21529;-75
2022/12/04 11:26:13;;;;;;;14.17;9.23;;;;;;;0.52;90.75;96268.04;1676854;86;21072;-75
2022/12/04 11:28:51;;;;;;;21.83;13.57;;;;;;;0.52;90.78;96264.14;1676880;85;21104;-75
2022/12/04 11:31:21;;;;;;;28.23;14.97;;;;;;;0.51;90.34;96259.80;1676674;86;21491;-75
2022/12/04 11:33:52;;;;;;;44.13;21.30;;;;;;;0.56;90.41;96260.39;1676784;84;21073;-75
2022/12/04 11:36:35;;;;;;;27.60;14.37;;;;;;;0.59;90.48;96259.19;1676903;86;21096;-75
2022/12/04 11:39:14;;;;;;;28.27;15.00;;;;;;;0.59;90.10;96257.01;1677000;86;21466;-75
2022/12/04 11:41:41;;;;;;;33.70;16.53;;;;;;;0.61;90.37;96261.42;1676902;86;21089;-75
2022/12/04 11:44:31;;;;;;;27.10;14.63;;;;;;;0.68;90.38;96260.29;1676896;86;21065;-75
2022/12/04 11:47:01;;;;;;;13.63;8.50;;;;;;;0.76;90.61;96258.83;1676814;86;21503;-75
2022/12/04 11:49:31;;;;;;;20.90;12.53;;;;;;;0.76;90.24;96254.93;1676691;86;21020;-75
2022/12/04 11:52:32;;;;;;;12.27;8.30;;;;;;;0.84;90.24;96253.44;1676866;86;21037;-75
2022/12/04 11:55:20;;;;;;;13.43;8.17;;;;;;;0.91;90.00;96246.28;1676964;86;20977;-75
2022/12/04 11:58:01;;;;;;;17.67;10.50;;;;;;;0.95;89.86;96243.34;1676900;85;21137;-75